M I D A S
Marine Information and Data Acquisition System
Tripno 1027 of the Zeeleeuw from 2006-01-23 07:41:22 to 2006-01-23 14:12:29
Back to CruiseResearch ActivitiesStationsMapUnderway DataData graphs

EquipmentUnitsComment
TimeDGPSUTC
LatitudeDGPSDM.mWGS84
LongitudeDGPSDM.mWGS84
TemperatureSBE03/SBE38deg celciusITS90
ConductivitySBE21S/mITS90
SalinitySBE21 Practical Salinity Units
ChlorophylAChelsea fluorimeterg/lCalibrated in Aceton
Missing or incorrect values are displayed as -999
Sea surface data collected by the RV Zeeleeuw from 2006-01-23 07:10:03 to 2006-01-23 14:18:58
Time Latitude Longitude Temperature Conductivity Salinity ChlorophylA
2006-01-23 07:11:08 51°13.598 2°56.096 -999 4.78244 33.346429 -1.388018
2006-01-23 07:12:08 51°13.598 2°56.096 -999 4.782128 33.346317 -1.388018
2006-01-23 07:13:10 51°13.599 2°56.095 -999 4.781713 33.345393 -1.388018
2006-01-23 07:14:10 51°13.599 2°56.094 -999 4.781401 33.345281 -1.388018
2006-01-23 07:15:07 51°13.599 2°56.095 -999 4.78109 33.344588 -1.388018
2006-01-23 07:16:07 51°13.599 2°56.095 -999 4.780778 33.345057 -1.388018
2006-01-23 07:17:07 51°13.599 2°56.094 -999 4.780467 33.344945 -1.388018
2006-01-23 07:18:07 51°13.598 2°56.095 -999 4.780052 33.345183 -1.388018
2006-01-23 07:19:07 51°13.6 2°56.095 -999 4.779636 33.345421 -1.388018
2006-01-23 07:20:06 51°13.599 2°56.095 -999 4.779117 33.345428 -1.388018
2006-01-23 07:21:07 51°13.598 2°56.094 -999 4.778598 33.345436 -1.388018
2006-01-23 07:22:06 51°13.599 2°56.093 -999 4.778079 33.346025 -1.388018
2006-01-23 07:23:05 51°13.599 2°56.094 -999 4.777456 33.345802 -1.388018
2006-01-23 07:24:07 51°13.6 2°56.094 -999 4.776729 33.344767 -1.388018
2006-01-23 07:25:07 51°13.601 2°56.094 -999 4.77621 33.345356 -1.388018
2006-01-23 07:26:07 51°13.6 2°56.095 -999 4.775587 33.345716 -1.388018
2006-01-23 07:27:05 51°13.6 2°56.095 -999 4.774964 33.345494 -1.388018
2006-01-23 07:28:07 51°13.6 2°56.094 -999 4.774238 33.345041 -1.388018
2006-01-23 07:29:07 51°13.599 2°56.096 -999 4.773615 33.344819 -1.388018
2006-01-23 07:30:07 51°13.599 2°56.095 -999 4.772888 33.344366 -1.388018
2006-01-23 07:31:07 51°13.599 2°56.095 -999 4.772161 33.343914 -1.388018
2006-01-23 07:32:07 51°13.599 2°56.095 -999 4.771434 33.344044 -1.388018
2006-01-23 07:33:07 51°13.599 2°56.096 -999 4.770708 33.34301 -1.388018
2006-01-23 07:34:06 51°13.599 2°56.096 -999 4.769981 33.34314 -1.388018
2006-01-23 07:35:07 51°13.599 2°56.096 -999 4.769254 33.343271 -1.388018
2006-01-23 07:36:05 51°13.6 2°56.095 -999 4.768424 33.342589 -1.388018
2006-01-23 07:37:06 51°13.6 2°56.095 -999 4.767593 33.341907 -1.388018
2006-01-23 07:38:06 51°13.6 2°56.095 -999 4.766866 33.341456 -1.388018
2006-01-23 07:39:05 51°13.599 2°56.096 -999 4.76614 33.342171 -1.421728
2006-01-23 07:40:06 51°13.598 2°56.097 -999 4.765309 33.34149 -1.388018
2006-01-23 07:41:07 51°13.597 2°56.097 -999 4.764479 33.341392 -1.388018
2006-01-23 07:42:07 51°13.604 2°56.064 -999 4.723262 33.21195 -1.3206
2006-01-23 07:43:07 51°13.625 2°55.985 -999 2.988684 28.878702 -1.152053
2006-01-23 07:44:07 51°13.661 2°55.874 -999 2.990454 29.922001 -1.219471
2006-01-23 07:45:05 51°13.698 2°55.758 -999 3.02128 30.571041 -1.219471
2006-01-23 07:46:05 51°13.708 2°55.71 -999 3.009076 30.58788 -1.219471
2006-01-23 07:47:07 51°13.737 2°55.71 -999 2.947022 29.996158 -1.219471
2006-01-23 07:48:05 51°13.802 2°55.659 -999 2.912068 29.667294 -1.185762
2006-01-23 07:49:05 51°13.899 2°55.579 -999 2.881254 29.364862 -1.084634
2006-01-23 07:50:05 51°14.007 2°55.496 -999 2.955607 30.205654 -1.118343
2006-01-23 07:51:07 51°14.114 2°55.421 -999 2.969259 30.398098 -1.118343
2006-01-23 07:52:05 51°14.231 2°55.304 -999 2.960158 30.332689 -1.152053
2006-01-23 07:53:07 51°14.347 2°55.09 -999 2.953746 30.271469 -1.185762
2006-01-23 07:54:05 51°14.475 2°54.884 -999 2.999666 30.726224 -1.219471
2006-01-23 07:55:05 51°14.656 2°54.702 -999 3.098556 31.799527 -1.219471
2006-01-23 07:56:05 51°14.849 2°54.526 -999 3.200259 32.760655 -1.28689
2006-01-23 07:57:07 51°15.05 2°54.347 -999 3.229542 33.00175 -1.28689
2006-01-23 07:58:07 51°15.244 2°54.173 -999 3.248479 33.171993 -1.28689
2006-01-23 07:59:05 51°15.432 2°54.001 -999 3.206468 32.885408 -1.28689
2006-01-23 08:00:05 51°15.629 2°53.824 -999 3.186809 32.766893 -1.28689
2006-01-23 08:01:05 51°15.825 2°53.646 -999 3.199743 32.918941 -1.28689
2006-01-23 08:02:07 51°16.028 2°53.462 -999 3.212057 33.038492 -1.28689
2006-01-23 08:03:07 51°16.224 2°53.285 -999 3.210401 33.019625 -1.3206
2006-01-23 08:04:05 51°16.417 2°53.126 -999 3.223232 33.160185 -1.28689
2006-01-23 08:05:07 51°16.625 2°52.958 -999 3.221473 33.136338 -1.3206
2006-01-23 08:06:05 51°16.818 2°52.8 -999 3.214851 33.102551 -1.3206
2006-01-23 08:07:05 51°17.015 2°52.624 -999 3.214126 33.097133 -1.3206
2006-01-23 08:08:05 51°17.21 2°52.442 -999 3.214023 33.096901 -1.3206
2006-01-23 08:09:07 51°17.403 2°52.23 -999 3.194053 32.912546 -1.28689
2006-01-23 08:10:07 51°17.54 2°51.95 -999 3.148321 32.552764 -1.3206
2006-01-23 08:11:07 51°17.65 2°51.638 -999 3.151425 32.588295 -1.3206
2006-01-23 08:12:07 51°17.754 2°51.323 -999 3.14801 32.507949 -1.3206
2006-01-23 08:13:07 51°17.857 2°51.004 -999 3.181947 32.833776 -1.3206
2006-01-23 08:14:05 51°17.955 2°50.697 -999 3.216817 33.121186 -1.3206
2006-01-23 08:15:05 51°18.051 2°50.376 -999 3.221473 33.14962 -1.3206
2006-01-23 08:16:07 51°18.146 2°50.04 -999 3.22644 33.18441 -1.3206
2006-01-23 08:17:06 51°18.235 2°49.722 -999 3.209263 33.018943 -1.3206
2006-01-23 08:18:05 51°18.325 2°49.402 -999 3.204607 32.997056 -1.3206
2006-01-23 08:19:07 51°18.417 2°49.067 -999 3.2074 33.009057 -1.3206
2006-01-23 08:20:06 51°18.51 2°48.744 -999 3.19757 32.919639 -1.28689
2006-01-23 08:21:05 51°18.601 2°48.423 -999 3.192604 32.892237 -1.28689
2006-01-23 08:22:06 51°18.695 2°48.09 -999 3.191776 32.893173 -1.28689
2006-01-23 08:23:07 51°18.792 2°47.759 -999 3.200468 32.965913 -1.28689
2006-01-23 08:24:06 51°18.884 2°47.444 -999 3.213299 33.082 -1.3206
2006-01-23 08:25:07 51°18.978 2°47.116 -999 3.191983 32.925781 -1.3206
2006-01-23 08:26:07 51°19.072 2°46.793 -999 3.19664 32.9591 -1.28689
2006-01-23 08:27:05 51°19.164 2°46.481 -999 3.197985 32.982987 -1.3206
2006-01-23 08:28:06 51°19.254 2°46.151 -999 3.190225 32.914195 -1.3206
2006-01-23 08:29:05 51°19.337 2°45.832 -999 3.197571 32.980153 -1.354309
2006-01-23 08:30:05 51°19.425 2°45.508 -999 3.213506 33.114725 -1.354309
2006-01-23 08:31:05 51°19.509 2°45.182 -999 3.226647 33.213376 -1.3206
2006-01-23 08:32:05 51°19.6 2°44.858 -999 3.242479 33.327241 -1.3206
2006-01-23 08:33:05 51°19.686 2°44.534 -999 3.233476 33.228498 -1.3206
2006-01-23 08:34:05 51°19.777 2°44.209 -999 3.23834 33.313408 -1.3206
2006-01-23 08:35:07 51°19.871 2°43.874 -999 3.247964 33.366849 -1.354309
2006-01-23 08:36:05 51°19.961 2°43.561 -999 3.263072 33.4816 -1.354309
2006-01-23 08:37:05 51°20.053 2°43.238 -999 3.267419 33.50145 -1.354309
2006-01-23 08:38:05 51°20.144 2°42.915 -999 3.263382 33.438435 -1.354309
2006-01-23 08:39:05 51°20.23 2°42.588 -999 3.275077 33.557946 -1.354309
2006-01-23 08:40:05 51°20.314 2°42.258 -999 3.275284 33.560297 -1.3206
2006-01-23 08:41:05 51°20.394 2°41.927 -999 3.274352 33.535405 -1.3206
2006-01-23 08:42:05 51°20.476 2°41.596 -999 3.283977 33.620831 -1.3206
2006-01-23 08:43:05 51°20.555 2°41.264 -999 3.289462 33.650605 -1.3206
2006-01-23 08:44:07 51°20.634 2°40.92 -999 3.294636 33.689239 -1.3206
2006-01-23 08:45:05 51°20.692 2°40.59 -999 3.28615 33.596825 -1.3206
2006-01-23 08:46:05 51°20.725 2°40.24 -999 3.305192 33.767804 -1.3206
2006-01-23 08:47:05 51°20.753 2°39.89 -999 3.30778 33.757919 -1.3206
2006-01-23 08:48:05 51°20.77 2°39.537 -999 3.325788 33.85556 -1.3206
2006-01-23 08:49:07 51°20.787 2°39.174 -999 3.34152 33.950029 -1.354309
2006-01-23 08:50:05 51°20.806 2°38.832 -999 3.350006 33.966456 -1.354309
2006-01-23 08:51:07 51°20.823 2°38.466 -999 3.356941 33.998724 -1.3206
2006-01-23 08:52:05 51°20.84 2°38.123 -999 3.366567 34.028793 -1.3206
2006-01-23 08:53:07 51°20.857 2°37.757 -999 3.374744 34.092931 -1.3206
2006-01-23 08:54:05 51°20.867 2°37.415 -999 3.390788 34.1566 -1.3206
2006-01-23 08:55:05 51°20.88 2°37.064 -999 3.408177 34.207516 -1.3206
2006-01-23 08:56:05 51°20.894 2°36.713 -999 3.413871 34.244434 -1.3206
2006-01-23 08:57:05 51°20.908 2°36.361 -999 3.410248 34.221117 -1.3206
2006-01-23 08:58:05 51°20.923 2°36.01 -999 3.401656 34.201139 -1.3206
2006-01-23 08:59:05 51°20.938 2°35.659 -999 3.397206 34.194151 -1.3206
2006-01-23 09:00:05 51°20.955 2°35.307 -999 3.399793 34.21357 -1.3206
2006-01-23 09:01:05 51°20.972 2°34.957 -999 3.40942 34.261217 -1.3206
2006-01-23 09:02:07 51°20.992 2°34.594 -999 3.413043 34.224791 -1.3206
2006-01-23 09:03:05 51°21.019 2°34.257 -999 3.440682 34.333411 -1.3206
2006-01-23 09:04:05 51°21.045 2°33.909 -999 3.464492 34.420617 -1.3206
2006-01-23 09:05:07 51°21.14 2°33.595 -999 3.473499 34.456035 -1.3206
2006-01-23 09:06:05 51°21.322 2°33.405 -999 3.473809 34.43034 -1.3206
2006-01-23 09:07:07 51°21.52 2°33.207 -999 3.477226 34.469857 -1.3206
2006-01-23 09:08:06 51°21.714 2°33.031 -999 3.468322 34.38959 -1.3206
2006-01-23 09:09:05 51°21.91 2°32.862 -999 3.469565 34.432394 -1.3206
2006-01-23 09:10:05 51°22.109 2°32.69 -999 3.463457 34.391324 -1.3206
2006-01-23 09:11:07 51°22.314 2°32.516 -999 3.454346 34.314253 -1.3206
2006-01-23 09:12:06 51°22.483 2°32.298 -999 3.456624 34.353483 -1.3206
2006-01-23 09:13:05 51°22.549 2°31.974 -999 3.460144 34.406476 -1.3206
2006-01-23 09:14:07 51°22.568 2°31.609 -999 3.456313 34.355692 -1.3206
2006-01-23 09:15:05 51°22.581 2°31.266 -999 3.45973 34.380261 -1.3206
2006-01-23 09:16:07 51°22.589 2°30.898 -999 3.463664 34.417118 -1.3206
2006-01-23 09:17:05 51°22.593 2°30.554 -999 3.467391 34.44415 -1.3206
2006-01-23 09:18:07 51°22.595 2°30.188 -999 3.466459 34.428218 -1.3206
2006-01-23 09:19:05 51°22.587 2°29.847 -999 3.472464 34.46625 -1.354309
2006-01-23 09:20:05 51°22.575 2°29.495 -999 3.479194 34.498114 -1.354309
2006-01-23 09:21:07 51°22.565 2°29.131 -999 3.479193 34.48683 -1.354309
2006-01-23 09:22:05 51°22.556 2°28.789 -999 3.475777 34.453888 -1.354309
2006-01-23 09:23:07 51°22.545 2°28.427 -999 3.479193 34.492471 -1.354309
2006-01-23 09:24:05 51°22.544 2°28.087 -999 3.472671 34.415919 -1.3206
2006-01-23 09:25:07 51°22.545 2°27.721 -999 3.47909 34.475354 -1.3206
2006-01-23 09:26:05 51°22.543 2°27.378 -999 3.481989 34.480979 -1.3206
2006-01-23 09:27:07 51°22.54 2°27.011 -999 3.483334 34.447031 -1.3206
2006-01-23 09:28:07 51°22.538 2°26.656 -999 3.491824 34.499106 -1.3206
2006-01-23 09:29:07 51°22.539 2°26.3 -999 3.493584 34.485672 -1.3206
2006-01-23 09:30:07 51°22.577 2°25.953 -999 3.502798 34.530623 -1.3206
2006-01-23 09:31:05 51°22.669 2°25.639 -999 3.515326 34.593051 -1.3206
2006-01-23 09:32:07 51°22.829 2°25.373 -999 3.5175 34.545009 -1.354309
2006-01-23 09:33:06 51°23.045 2°25.343 -999 3.528061 34.628638 -1.354309
2006-01-23 09:34:07 51°23.272 2°25.41 -999 3.5321 34.652196 -1.354309
2006-01-23 09:35:05 51°23.489 2°25.483 -999 3.532617 34.631758 -1.354309
2006-01-23 09:36:07 51°23.72 2°25.557 -999 3.540176 34.683414 -1.354309
2006-01-23 09:37:05 51°23.936 2°25.625 -999 3.543386 34.698824 -1.354309
2006-01-23 09:38:05 51°24.161 2°25.692 -999 3.546492 34.698204 -1.354309
2006-01-23 09:39:07 51°24.395 2°25.759 -999 3.552498 34.72912 -1.354309
2006-01-23 09:40:05 51°24.613 2°25.821 -999 3.55695 34.735682 -1.354309
2006-01-23 09:41:07 51°24.845 2°25.884 -999 3.567201 34.771746 -1.354309
2006-01-23 09:42:05 51°25.061 2°25.94 -999 3.573207 34.781204 -1.354309
2006-01-23 09:43:07 51°25.29 2°25.997 -999 3.573104 34.791204 -1.354309
2006-01-23 09:44:06 51°25.509 2°26.053 -999 3.568651 34.764277 -1.354309
2006-01-23 09:45:06 51°25.732 2°26.111 -999 3.568858 34.766522 -1.354309
2006-01-23 09:46:07 51°25.96 2°26.099 -999 3.567512 34.740817 -1.354309
2006-01-23 09:47:05 51°26.177 2°26.051 -999 3.575899 34.790903 -1.354309
2006-01-23 09:48:07 51°26.41 2°26.004 -999 3.584287 34.82517 -1.354309
2006-01-23 09:49:06 51°26.632 2°25.961 -999 3.589672 34.84913 -1.354309
2006-01-23 09:50:07 51°26.862 2°25.917 -999 3.592779 34.858636 -1.354309
2006-01-23 09:51:06 51°27.085 2°25.876 -999 3.592675 34.859367 -1.354309
2006-01-23 09:52:05 51°27.305 2°25.833 -999 3.594436 34.867278 -1.354309
2006-01-23 09:53:07 51°27.537 2°25.79 -999 3.596196 34.874261 -1.354309
2006-01-23 09:54:05 51°27.757 2°25.752 -999 3.597335 34.876385 -1.354309
2006-01-23 09:55:07 51°27.992 2°25.711 -999 3.598267 34.879971 -1.354309
2006-01-23 09:56:06 51°28.216 2°25.671 -999 3.599613 34.886176 -1.354309
2006-01-23 09:57:07 51°28.446 2°25.631 -999 3.60096 34.890531 -1.354309
2006-01-23 09:58:06 51°28.669 2°25.592 -999 3.60272 34.892886 -1.354309
2006-01-23 09:59:06 51°28.895 2°25.55 -999 3.604998 34.897127 -1.354309
2006-01-23 10:00:06 51°29.121 2°25.509 -999 3.607069 34.908363 -1.354309
2006-01-23 10:01:07 51°29.351 2°25.464 -999 3.607898 34.917287 -1.354309
2006-01-23 10:02:07 51°29.576 2°25.421 -999 3.607277 34.91521 -1.354309
2006-01-23 10:03:07 51°29.802 2°25.381 -999 3.607484 34.915594 -1.354309
2006-01-23 10:04:07 51°30.028 2°25.341 -999 3.610383 34.927439 -1.354309
2006-01-23 10:05:06 51°30.25 2°25.332 -999 3.615354 34.947724 -1.354309
2006-01-23 10:06:07 51°30.478 2°25.353 -999 3.620222 34.960419 -1.354309
2006-01-23 10:07:07 51°30.7 2°25.394 -999 3.622914 34.96816 -1.354309
2006-01-23 10:08:07 51°30.916 2°25.493 -999 3.624053 34.969344 -1.354309
2006-01-23 10:09:07 51°31.13 2°25.587 -999 3.624778 34.973447 -1.354309
2006-01-23 10:10:07 51°31.342 2°25.697 -999 3.624985 34.97475 -1.354309
2006-01-23 10:11:07 51°31.542 2°25.853 -999 3.621879 34.971777 -1.354309
2006-01-23 10:12:06 51°31.739 2°26.004 -999 3.617322 34.9569 -1.354309
2006-01-23 10:13:07 51°31.941 2°26.163 -999 3.614319 34.947653 -1.354309
2006-01-23 10:14:07 51°32.138 2°26.327 -999 3.609762 34.931826 -1.354309
2006-01-23 10:15:07 51°32.331 2°26.5 -999 3.605413 34.91729 -1.354309
2006-01-23 10:16:07 51°32.52 2°26.682 -999 3.60241 34.903393 -1.354309
2006-01-23 10:17:07 51°32.709 2°26.867 -999 3.60127 34.899426 -1.354309
2006-01-23 10:18:07 51°32.901 2°27.051 -999 3.60096 34.900697 -1.354309
2006-01-23 10:19:06 51°33.088 2°27.231 -999 3.600856 34.901429 -1.354309
2006-01-23 10:20:07 51°33.281 2°27.418 -999 3.601063 34.902739 -1.354309
2006-01-23 10:21:06 51°33.468 2°27.6 -999 3.600753 34.902161 -1.354309
2006-01-23 10:22:07 51°33.662 2°27.786 -999 3.601581 34.904626 -1.388018
2006-01-23 10:23:05 51°33.845 2°27.965 -999 3.602927 34.910826 -1.354309
2006-01-23 10:24:07 51°34.041 2°28.155 -999 3.604377 34.919064 -1.354309
2006-01-23 10:25:06 51°34.227 2°28.335 -999 3.605413 34.920986 -1.388018
2006-01-23 10:26:07 51°34.417 2°28.525 -999 3.605309 34.922643 -1.388018
2006-01-23 10:27:07 51°34.606 2°28.709 -999 3.604274 34.920721 -1.354309
2006-01-23 10:28:07 51°34.795 2°28.893 -999 3.603445 34.91641 -1.354309
2006-01-23 10:29:07 51°34.983 2°29.078 -999 3.603135 34.914908 -1.354309
2006-01-23 10:30:07 51°35.17 2°29.263 -999 3.602617 34.914871 -1.354309
2006-01-23 10:31:07 51°35.358 2°29.449 -999 3.60241 34.912637 -1.388018
2006-01-23 10:32:06 51°35.541 2°29.632 -999 3.602306 34.914295 -1.388018
2006-01-23 10:33:05 51°35.727 2°29.813 -999 3.601788 34.912408 -1.354309
2006-01-23 10:34:07 51°35.92 2°30.003 -999 3.601685 34.913141 -1.388018
2006-01-23 10:35:07 51°36.106 2°30.189 -999 3.601685 34.914066 -1.388018
2006-01-23 10:36:07 51°36.293 2°30.375 -999 3.601685 34.913141 -1.388018
2006-01-23 10:37:07 51°36.48 2°30.562 -999 3.601685 34.914066 -1.388018
2006-01-23 10:38:07 51°36.667 2°30.75 -999 3.601167 34.912179 -1.354309
2006-01-23 10:39:06 51°36.851 2°30.935 -999 3.601167 34.911254 -1.388018
2006-01-23 10:40:07 51°37.04 2°31.124 -999 3.600235 34.906748 -1.354309
2006-01-23 10:41:07 51°37.227 2°31.311 -999 3.598785 34.902203 -1.388018
2006-01-23 10:42:07 51°37.416 2°31.495 -999 3.596921 34.898737 -1.388018
2006-01-23 10:43:07 51°37.603 2°31.679 -999 3.594229 34.888172 -1.388018
2006-01-23 10:44:06 51°37.788 2°31.859 -999 3.590604 34.874938 -1.354309
2006-01-23 10:45:07 51°37.978 2°32.046 -999 3.58698 34.860765 -1.388018
2006-01-23 10:46:07 51°38.165 2°32.229 -999 3.58408 34.851643 -1.354309
2006-01-23 10:47:07 51°38.353 2°32.414 -999 3.582113 34.845184 -1.388018
2006-01-23 10:48:07 51°38.541 2°32.602 -999 3.579731 34.837947 -1.388018
2006-01-23 10:49:07 51°38.728 2°32.784 -999 3.577246 34.828656 -1.388018
2006-01-23 10:50:07 51°38.915 2°32.968 -999 3.574864 34.82141 -1.354309
2006-01-23 10:51:07 51°39.102 2°33.153 -999 3.555499 34.626409 -1.388018
2006-01-23 10:52:07 51°39.29 2°33.336 -999 3.571344 34.808309 -1.354309
2006-01-23 10:53:07 51°39.47 2°33.537 -999 3.570205 34.8071 -1.388018
2006-01-23 10:54:07 51°39.651 2°33.738 -999 3.569066 34.804963 -1.354309
2006-01-23 10:55:07 51°39.832 2°33.939 -999 3.568859 34.806432 -1.388018
2006-01-23 10:56:05 51°40.006 2°34.133 -999 3.568755 34.806238 -1.388018
2006-01-23 10:57:07 51°40.193 2°34.339 -999 3.569273 34.809068 -1.388018
2006-01-23 10:58:07 51°40.374 2°34.539 -999 3.569894 34.813021 -1.354309
2006-01-23 10:59:07 51°40.555 2°34.736 -999 3.570308 34.816586 -1.388018
2006-01-23 11:00:07 51°40.718 2°34.965 -999 3.57124 34.820191 -1.388018
2006-01-23 11:01:07 51°40.851 2°35.235 -999 3.572586 34.824572 -1.388018
2006-01-23 11:02:05 51°40.935 2°35.536 -999 3.573208 34.833169 -1.388018
2006-01-23 11:03:07 51°40.978 2°35.881 -999 3.571344 34.829681 -1.388018
2006-01-23 11:04:07 51°40.988 2°36.214 -999 3.568237 34.818283 -1.388018
2006-01-23 11:05:07 51°40.93 2°36.536 -999 3.565959 34.808431 -1.388018
2006-01-23 11:06:07 51°40.877 2°36.866 -999 3.564613 34.800323 -1.354309
2006-01-23 11:07:07 51°40.814 2°37.193 -999 3.562439 34.792517 -1.388018
2006-01-23 11:08:07 51°40.725 2°37.503 -999 3.55985 34.777414 -1.388018
2006-01-23 11:09:07 51°40.639 2°37.816 -999 3.555604 34.754525 -1.388018
2006-01-23 11:10:07 51°40.551 2°38.129 -999 3.553326 34.746503 -1.388018
2006-01-23 11:11:07 51°40.457 2°38.437 -999 3.548977 34.732699 -1.388018
2006-01-23 11:12:07 51°40.352 2°38.738 -999 3.544629 34.721677 -1.388018
2006-01-23 11:13:07 51°40.248 2°39.038 -999 3.541729 34.714323 -1.388018
2006-01-23 11:14:07 51°40.146 2°39.339 -999 3.539762 34.707798 -1.388018
2006-01-23 11:15:07 51°40.037 2°39.638 -999 3.539141 34.701023 -1.388018
2006-01-23 11:16:07 51°39.923 2°39.929 -999 3.540694 34.703968 -1.388018
2006-01-23 11:17:07 51°39.81 2°40.222 -999 3.542868 34.710886 -1.388018
2006-01-23 11:18:07 51°39.696 2°40.514 -999 3.544111 34.716037 -1.388018
2006-01-23 11:19:07 51°39.581 2°40.805 -999 3.54525 34.721921 -1.388018
2006-01-23 11:20:05 51°39.467 2°41.081 -999 3.544422 34.725947 -1.388018
2006-01-23 11:21:07 51°39.304 2°41.32 -999 3.541005 34.718549 -1.388018
2006-01-23 11:22:07 51°39.145 2°41.549 -999 3.539969 34.714722 -1.388018
2006-01-23 11:23:07 51°38.967 2°41.735 -999 3.541729 34.718055 -1.388018
2006-01-23 11:24:07 51°38.765 2°41.862 -999 3.544318 34.727617 -1.388018
2006-01-23 11:25:07 51°38.554 2°41.941 -999 3.547735 34.736873 -1.388018
2006-01-23 11:26:07 51°38.335 2°41.957 -999 3.550945 34.75039 -1.388018
2006-01-23 11:27:05 51°38.121 2°41.955 -999 3.554362 34.758698 -1.388018
2006-01-23 11:28:07 51°37.91 2°41.825 -999 3.557365 34.767151 -1.388018
2006-01-23 11:29:07 51°37.74 2°41.585 -999 3.5584 34.772824 -1.388018
2006-01-23 11:30:07 51°37.59 2°41.306 -999 3.558607 34.771352 -1.388018
2006-01-23 11:31:07 51°37.486 2°40.983 -999 3.5584 34.772824 -1.388018
2006-01-23 11:32:05 51°37.478 2°40.627 -999 3.558711 34.774339 -1.388018
2006-01-23 11:33:07 51°37.478 2°40.242 -999 3.557261 34.772541 -1.388018
2006-01-23 11:34:07 51°37.474 2°39.872 -999 3.557572 34.774057 -1.388018
2006-01-23 11:35:07 51°37.477 2°39.506 -999 3.562646 34.787324 -1.354309
2006-01-23 11:36:07 51°37.481 2°39.138 -999 3.568134 34.800425 -1.388018
2006-01-23 11:37:07 51°37.497 2°38.771 -999 3.570412 34.804703 -1.388018
2006-01-23 11:38:07 51°37.509 2°38.407 -999 3.570515 34.803968 -1.388018
2006-01-23 11:39:07 51°37.52 2°38.039 -999 3.571344 34.804595 -1.354309
2006-01-23 11:40:07 51°37.522 2°37.673 -999 3.573 34.811418 -1.388018
2006-01-23 11:41:07 51°37.524 2°37.305 -999 3.577039 34.824557 -1.354309
2006-01-23 11:42:07 51°37.527 2°36.936 -999 3.575589 34.819985 -1.388018
2006-01-23 11:43:07 51°37.532 2°36.567 -999 3.57766 34.827577 -1.388018
2006-01-23 11:44:07 51°37.534 2°36.195 -999 3.582631 34.841517 -1.388018
2006-01-23 11:45:07 51°37.522 2°35.831 -999 3.580663 34.841546 -1.388018
2006-01-23 11:46:07 51°37.442 2°35.489 -999 3.576314 34.827839 -1.388018
2006-01-23 11:47:07 51°37.331 2°35.165 -999 3.570412 34.804703 -1.388018
2006-01-23 11:48:07 51°37.221 2°34.837 -999 3.566787 34.791392 -1.388018
2006-01-23 11:49:07 51°37.111 2°34.507 -999 3.565234 34.785684 -1.388018
2006-01-23 11:50:07 51°36.992 2°34.188 -999 3.563992 34.781488 -1.388018
2006-01-23 11:51:07 51°36.804 2°33.972 -999 3.56337 34.783108 -1.388018
2006-01-23 11:52:07 51°36.601 2°33.806 -999 3.564199 34.783737 -1.388018
2006-01-23 11:53:07 51°36.395 2°33.649 -999 3.564613 34.785445 -1.388018
2006-01-23 11:54:07 51°36.183 2°33.515 -999 3.565131 34.788278 -1.388018
2006-01-23 11:55:07 51°35.969 2°33.39 -999 3.566166 34.790224 -1.388018
2006-01-23 11:56:07 51°35.756 2°33.259 -999 3.567409 34.795347 -1.388018
2006-01-23 11:57:07 51°35.542 2°33.134 -999 3.569997 34.802996 -1.388018
2006-01-23 11:58:07 51°35.328 2°33.005 -999 3.573829 34.816685 -1.388018
2006-01-23 11:59:07 51°35.113 2°32.889 -999 3.580042 34.838528 -1.388018
2006-01-23 12:00:07 51°34.898 2°32.775 -999 3.586462 34.852387 -1.354309
2006-01-23 12:01:07 51°34.681 2°32.658 -999 3.588533 34.859034 -1.354309
2006-01-23 12:02:07 51°34.477 2°32.498 -999 3.592261 34.871546 -1.354309
2006-01-23 12:03:07 51°34.265 2°32.365 -999 3.595368 34.88474 -1.354309
2006-01-23 12:04:07 51°34.05 2°32.25 -999 3.596921 34.889483 -1.354309
2006-01-23 12:05:07 51°33.833 2°32.135 -999 3.597853 34.889368 -1.354309
2006-01-23 12:06:07 51°33.615 2°32.027 -999 3.598371 34.892182 -1.354309
2006-01-23 12:07:07 51°33.396 2°31.921 -999 3.598164 34.887173 -1.354309
2006-01-23 12:08:07 51°33.178 2°31.814 -999 3.597128 34.88247 -1.388018
2006-01-23 12:09:07 51°32.955 2°31.816 -999 3.594539 34.87117 -1.354309
2006-01-23 12:10:07 51°32.731 2°31.832 -999 3.593193 34.864033 -1.354309
2006-01-23 12:11:07 51°32.506 2°31.839 -999 3.591225 34.855734 -1.388018
2006-01-23 12:12:07 51°32.28 2°31.85 -999 3.589258 34.846505 -1.388018
2006-01-23 12:13:07 51°32.055 2°31.86 -999 3.587912 34.843062 -1.388018
2006-01-23 12:14:07 51°31.829 2°31.878 -999 3.586773 34.840005 -1.354309
2006-01-23 12:15:07 51°31.602 2°31.888 -999 3.58698 34.837616 -1.354309
2006-01-23 12:16:07 51°31.384 2°31.953 -999 3.585219 34.839875 -1.388018
2006-01-23 12:17:07 51°31.192 2°32.118 -999 3.585219 34.837098 -1.388018
2006-01-23 12:18:07 51°31.002 2°32.297 -999 3.580767 34.829686 -1.354309
2006-01-23 12:19:07 51°30.814 2°32.478 -999 3.580249 34.825009 -1.354309
2006-01-23 12:20:07 51°30.626 2°32.658 -999 3.583148 34.835073 -1.354309
2006-01-23 12:21:07 51°30.439 2°32.839 -999 3.577971 34.820739 -1.354309
2006-01-23 12:22:07 51°30.282 2°33.069 -999 3.570101 34.79205 -1.354309
2006-01-23 12:23:07 51°30.173 2°33.356 -999 3.555294 34.748357 -1.388018
2006-01-23 12:24:07 51°30.072 2°33.644 -999 3.544836 34.711819 -1.354309
2006-01-23 12:25:07 51°29.964 2°33.92 -999 3.535413 34.67902 -1.354309
2006-01-23 12:26:07 51°29.866 2°34.219 -999 3.521953 34.639374 -1.388018
2006-01-23 12:27:07 51°29.809 2°34.542 -999 3.515016 34.619575 -1.388018
2006-01-23 12:28:07 51°29.779 2°34.876 -999 3.514084 34.611241 -1.354309
2006-01-23 12:29:07 51°29.748 2°35.21 -999 3.513773 34.610647 -1.354309
2006-01-23 12:30:07 51°29.721 2°35.543 -999 3.51367 34.61232 -1.388018
2006-01-23 12:31:07 51°29.692 2°35.876 -999 3.511806 34.60969 -1.388018
2006-01-23 12:32:07 51°29.658 2°36.206 -999 3.505801 34.596315 -1.354309
2006-01-23 12:33:07 51°29.632 2°36.534 -999 3.491203 34.542926 -1.388018
2006-01-23 12:34:07 51°29.554 2°36.838 -999 3.484991 34.522488 -1.388018
2006-01-23 12:35:07 51°29.424 2°37.103 -999 3.481264 34.513407 -1.388018
2006-01-23 12:36:07 51°29.282 2°37.359 -999 3.473603 34.495766 -1.388018
2006-01-23 12:37:07 51°29.124 2°37.593 -999 3.467702 34.477734 -1.354309
2006-01-23 12:38:07 51°28.93 2°37.764 -999 3.464079 34.47165 -1.388018
2006-01-23 12:39:07 51°28.74 2°37.942 -999 3.456625 34.448671 -1.354309
2006-01-23 12:40:07 51°28.547 2°38.11 -999 3.449482 34.423415 -1.388018
2006-01-23 12:41:07 51°28.337 2°38.222 -999 3.438198 34.387173 -1.388018
2006-01-23 12:42:07 51°28.128 2°38.342 -999 3.428674 34.35428 -1.388018
2006-01-23 12:43:07 51°27.916 2°38.451 -999 3.422567 34.329933 -1.388018
2006-01-23 12:44:07 51°27.704 2°38.567 -999 3.416252 34.306088 -1.388018
2006-01-23 12:45:07 51°27.492 2°38.682 -999 3.41325 34.292556 -1.388018
2006-01-23 12:46:07 51°27.279 2°38.794 -999 3.409834 34.280097 -1.388018
2006-01-23 12:47:07 51°27.066 2°38.904 -999 3.407454 34.270628 -1.388018
2006-01-23 12:48:07 51°26.851 2°39.009 -999 3.405487 34.262926 -1.388018
2006-01-23 12:49:07 51°26.633 2°39.103 -999 3.404969 34.2619 -1.388018
2006-01-23 12:50:07 51°26.415 2°39.195 -999 3.40559 34.264082 -1.354309
2006-01-23 12:51:07 51°26.2 2°39.287 -999 3.388097 34.194998 -1.388018
2006-01-23 12:52:07 51°25.983 2°39.372 -999 3.376918 34.144007 -1.388018
2006-01-23 12:53:07 51°25.766 2°39.458 -999 3.36781 34.107551 -1.388018
2006-01-23 12:54:07 51°25.56 2°39.584 -999 3.359529 34.066946 -1.388018
2006-01-23 12:55:07 51°25.359 2°39.728 -999 3.351145 34.022224 -1.388018
2006-01-23 12:56:07 51°25.161 2°39.873 -999 3.339036 33.961187 -1.388018
2006-01-23 12:57:07 51°24.964 2°40.018 -999 3.319578 33.851302 -1.354309
2006-01-23 12:58:07 51°24.762 2°40.147 -999 3.309953 33.791131 -1.388018
2006-01-23 12:59:07 51°24.553 2°40.264 -999 3.306848 33.775089 -1.388018
2006-01-23 13:00:07 51°24.347 2°40.39 -999 3.303123 33.760606 -1.354309
2006-01-23 13:01:07 51°24.137 2°40.501 -999 3.299604 33.743671 -1.354309
2006-01-23 13:02:07 51°23.917 2°40.566 -999 3.296189 33.717367 -1.388018
2006-01-23 13:03:05 51°23.705 2°40.631 -999 3.300225 33.749757 -1.388018
2006-01-23 13:04:07 51°23.477 2°40.677 -999 3.300122 33.751456 -1.388018
2006-01-23 13:05:07 51°23.251 2°40.624 -999 3.297431 33.736244 -1.354309
2006-01-23 13:06:07 51°23.026 2°40.537 -999 3.293705 33.713104 -1.388018
2006-01-23 13:07:07 51°22.816 2°40.379 -999 3.292153 33.700267 -1.354309
2006-01-23 13:08:07 51°22.615 2°40.182 -999 3.29474 33.718151 -1.354309
2006-01-23 13:09:07 51°22.415 2°39.987 -999 3.295982 33.72746 -1.388018
2006-01-23 13:10:07 51°22.209 2°39.805 -999 3.29888 33.744068 -1.354309
2006-01-23 13:11:07 51°21.986 2°39.737 -999 3.301467 33.765761 -1.388018
2006-01-23 13:12:07 51°21.784 2°39.848 -999 3.300018 33.763691 -1.388018
2006-01-23 13:13:07 51°21.595 2°40.019 -999 3.298776 33.748639 -1.388018
2006-01-23 13:14:07 51°21.406 2°40.192 -999 3.288738 33.690203 -1.354309
2006-01-23 13:15:07 51°21.256 2°40.424 -999 3.272904 33.597296 -1.354309
2006-01-23 13:16:07 51°21.125 2°40.686 -999 3.267109 33.550468 -1.354309
2006-01-23 13:17:07 51°20.99 2°40.941 -999 3.259554 33.49313 -1.354309
2006-01-23 13:18:07 51°20.859 2°41.199 -999 3.247757 33.39978 -1.354309
2006-01-23 13:19:05 51°20.762 2°41.473 -999 3.236478 33.324583 -1.354309
2006-01-23 13:20:07 51°20.597 2°41.69 -999 3.235236 33.314229 -1.354309
2006-01-23 13:21:07 51°20.468 2°41.946 -999 3.233581 33.318235 -1.354309
2006-01-23 13:22:07 51°20.373 2°42.237 -999 3.224992 33.251624 -1.354309
2006-01-23 13:23:07 51°20.272 2°42.524 -999 3.219611 33.198724 -1.354309
2006-01-23 13:24:07 51°20.179 2°42.817 -999 3.204711 33.080746 -1.354309
2006-01-23 13:25:07 51°20.079 2°43.105 -999 3.198399 33.031362 -1.354309
2006-01-23 13:26:07 51°19.98 2°43.395 -999 3.187535 32.93078 -1.354309
2006-01-23 13:27:05 51°19.884 2°43.674 -999 3.179154 32.851919 -1.354309
2006-01-23 13:28:07 51°19.802 2°43.984 -999 3.170049 32.787403 -1.354309
2006-01-23 13:29:07 51°19.721 2°44.282 -999 3.166842 32.782815 -1.354309
2006-01-23 13:30:07 51°19.644 2°44.585 -999 3.167359 32.795372 -1.354309
2006-01-23 13:31:07 51°19.59 2°44.9 -999 3.166635 32.794644 -1.3206
2006-01-23 13:32:07 51°19.506 2°45.199 -999 3.167463 32.795612 -1.3206
2006-01-23 13:33:07 51°19.442 2°45.504 -999 3.156909 32.692581 -1.3206
2006-01-23 13:34:07 51°19.376 2°45.813 -999 3.138907 32.523846 -1.3206
2006-01-23 13:35:07 51°19.307 2°46.12 -999 3.124733 32.397887 -1.3206
2006-01-23 13:36:07 51°19.237 2°46.426 -999 3.113457 32.306888 -1.3206
2006-01-23 13:37:07 51°19.164 2°46.731 -999 3.106112 32.259045 -1.3206
2006-01-23 13:38:07 51°19.082 2°47.031 -999 3.093594 32.152585 -1.3206
2006-01-23 13:39:07 51°18.998 2°47.329 -999 3.085008 32.079059 -1.3206
2006-01-23 13:40:07 51°18.912 2°47.628 -999 3.084491 32.049803 -1.3206
2006-01-23 13:41:07 51°18.825 2°47.926 -999 3.085939 32.082302 -1.3206
2006-01-23 13:42:05 51°18.738 2°48.213 -999 3.092353 32.144852 -1.3206
2006-01-23 13:43:07 51°18.648 2°48.522 -999 3.092663 32.148421 -1.28689
2006-01-23 13:44:07 51°18.561 2°48.819 -999 3.084284 32.07073 -1.28689
2006-01-23 13:45:07 51°18.472 2°49.114 -999 3.071146 31.919675 -1.28689
2006-01-23 13:46:07 51°18.38 2°49.411 -999 3.056147 31.792649 -1.28689
2006-01-23 13:47:07 51°18.288 2°49.708 -999 3.04601 31.712106 -1.28689
2006-01-23 13:48:07 51°18.195 2°50.004 -999 3.03939 31.642382 -1.28689
2006-01-23 13:49:07 51°18.098 2°50.296 -999 3.030288 31.556981 -1.28689
2006-01-23 13:50:07 51°17.998 2°50.586 -999 3.021186 31.48624 -1.28689
2006-01-23 13:51:07 51°17.89 2°50.873 -999 3.024703 31.518459 -1.28689
2006-01-23 13:52:07 51°17.78 2°51.156 -999 3.020979 31.509642 -1.28689
2006-01-23 13:53:07 51°17.671 2°51.443 -999 3.030702 31.568194 -1.253181
2006-01-23 13:54:07 51°17.554 2°51.728 -999 3.032874 31.588593 -1.219471
2006-01-23 13:55:07 51°17.418 2°52.002 -999 3.022531 31.514622 -1.185762
2006-01-23 13:56:07 51°17.235 2°52.197 -999 3.027392 31.539298 -1.118343
2006-01-23 13:57:07 51°17.029 2°52.339 -999 3.023255 31.532185 -1.118343
2006-01-23 13:58:05 51°16.834 2°52.489 -999 3.036805 31.638467 -1.152053
2006-01-23 13:59:07 51°16.617 2°52.633 -999 3.059871 31.831777 -1.185762
2006-01-23 14:00:07 51°16.407 2°52.77 -999 3.080353 32.008763 -1.219471
2006-01-23 14:01:07 51°16.201 2°52.895 -999 3.070836 31.913323 -1.219471
2006-01-23 14:02:07 51°15.996 2°53.021 -999 3.013946 31.420306 -1.185762
2006-01-23 14:03:07 51°15.792 2°53.151 -999 3.007119 31.358181 -1.253181
2006-01-23 14:04:07 51°15.636 2°53.253 -999 3.021082 31.467576 -1.253181
2006-01-23 14:05:07 51°15.45 2°53.349 -999 3.046941 31.680319 -1.253181
2006-01-23 14:06:07 51°15.254 2°53.472 -999 3.064733 31.837634 -1.253181
2006-01-23 14:07:07 51°15.095 2°53.685 -999 3.068353 31.872741 -1.253181
2006-01-23 14:08:07 51°14.933 2°53.898 -999 3.073732 31.91691 -1.253181
2006-01-23 14:09:07 51°14.771 2°54.119 -999 3.067836 31.876067 -1.219471
2006-01-23 14:10:05 51°14.626 2°54.346 -999 3.070422 31.892799 -1.185762
2006-01-23 14:11:07 51°14.509 2°54.629 -999 3.051699 31.721163 -1.219471
2006-01-23 14:12:07 51°14.402 2°54.911 -999 3.059043 31.782452 -1.219471
2006-01-23 14:13:07 51°14.304 2°55.186 -999 3.051285 31.653753 -1.253181
2006-01-23 14:14:07 51°14.178 2°55.368 -999 2.911761 29.932078 -1.185762
2006-01-23 14:15:07 51°14.049 2°55.466 -999 2.913828 29.830535 -1.152053
2006-01-23 14:16:06 51°13.945 2°55.543 -999 2.86016 29.167167 -1.118343
2006-01-23 14:17:10 51°13.845 2°55.621 -999 2.762147 28.009025 -1.118343
2006-01-23 14:18:11 51°13.771 2°55.69 -999 2.749535 27.841923 -1.118343